createdAt,value
2018-10-18T00:01:08.885Z,78.85
2018-10-18T00:03:37.871Z,79.84
2018-10-18T00:06:07.341Z,78.93
2018-10-18T00:08:36.933Z,79.88
2018-10-18T00:11:05.928Z,78.98
2018-10-18T00:13:35.820Z,79.58
2018-10-18T00:16:05.504Z,79.41
2018-10-18T00:18:34.390Z,78.99
2018-10-18T00:21:03.331Z,79.06
2018-10-18T00:23:32.190Z,79.89
2018-10-18T00:27:05.088Z,80.14
2018-10-18T00:29:34.011Z,79.49
2018-10-18T00:32:03.803Z,80.22
2018-10-18T00:34:33.609Z,80.89
2018-10-18T00:37:03.942Z,80.72
2018-10-18T00:39:32.898Z,81.57
2018-10-18T00:42:02.152Z,81.35
2018-10-18T00:44:31.910Z,82.07
2018-10-18T00:47:01.833Z,82.24
2018-10-18T00:49:31.065Z,81.77
2018-10-18T00:54:44.675Z,82.51
2018-10-18T00:57:13.986Z,82.03
2018-10-18T00:59:43.533Z,81.99
2018-10-18T01:02:12.560Z,82.37
2018-10-18T01:04:42.382Z,81.82
2018-10-18T01:07:12.451Z,82.00
2018-10-18T01:09:42.095Z,81.96
2018-10-18T01:12:11.980Z,82.23
2018-10-18T01:14:42.608Z,82.76
2018-10-18T01:17:12.061Z,81.94
2018-10-18T01:19:41.532Z,82.44
2018-10-18T01:22:11.090Z,82.06
2018-10-18T01:27:54.864Z,82.19
2018-10-18T01:30:23.761Z,82.51
2018-10-18T01:32:58.625Z,82.55
2018-10-18T01:35:28.453Z,82.57
2018-10-18T01:37:57.738Z,82.11
2018-10-18T01:40:27.230Z,81.90
2018-10-18T01:42:56.902Z,82.16
2018-10-18T01:45:26.503Z,81.98
2018-10-18T01:47:55.386Z,82.35
2018-10-18T01:50:24.504Z,82.67
2018-10-18T01:52:53.996Z,82.14
2018-10-18T01:55:23.085Z,82.75
2018-10-18T01:57:52.633Z,82.76
2018-10-18T02:00:21.988Z,82.59
2018-10-18T02:02:50.850Z,82.80
2018-10-18T02:05:19.791Z,82.37
2018-10-18T02:07:49.223Z,82.26
2018-10-18T02:10:18.088Z,81.83
2018-10-18T02:12:47.042Z,81.86
2018-10-18T02:15:16.562Z,81.68
2018-10-18T02:17:45.419Z,82.42
2018-10-18T02:20:14.258Z,82.33
2018-10-18T02:22:43.320Z,82.08
2018-10-18T02:25:13.038Z,81.91
2018-10-18T02:27:43.569Z,81.43
2018-10-18T02:30:13.464Z,81.38
2018-10-18T02:32:43.222Z,82.29
2018-10-18T02:35:13.141Z,82.02
2018-10-18T02:37:43.296Z,82.46
2018-10-18T02:40:13.342Z,82.39
2018-10-18T02:42:42.727Z,82.59
2018-10-18T02:45:12.463Z,82.15
2018-10-18T02:47:42.782Z,82.03
2018-10-18T02:50:12.132Z,81.95
2018-10-18T02:52:45.101Z,81.99
2018-10-18T02:55:13.990Z,82.66
2018-10-18T02:57:43.412Z,83.04
2018-10-18T03:00:13.205Z,82.90
2018-10-18T03:02:42.834Z,83.28
2018-10-18T03:05:12.215Z,82.87
2018-10-18T03:07:42.028Z,83.13
2018-10-18T03:10:11.686Z,83.54
2018-10-18T03:12:41.687Z,83.99
2018-10-18T03:15:12.164Z,83.59
2018-10-18T03:17:41.744Z,83.33
2018-10-18T03:20:10.973Z,83.70
2018-10-18T03:22:41.302Z,83.64
2018-10-18T03:25:11.721Z,84.47
2018-10-18T03:27:41.778Z,84.28
2018-10-18T03:30:11.558Z,84.96
2018-10-18T03:32:41.533Z,84.09
2018-10-18T03:35:11.775Z,84.19
2018-10-18T03:37:41.344Z,84.99
2018-10-18T03:40:10.958Z,84.60
2018-10-18T03:42:40.977Z,84.92
2018-10-18T03:45:10.329Z,84.40
2018-10-18T03:47:39.956Z,84.88
2018-10-18T03:50:09.008Z,84.75
2018-10-18T03:52:39.164Z,84.55
2018-10-18T03:55:08.113Z,84.75
2018-10-18T03:57:37.679Z,84.83
2018-10-18T04:00:08.629Z,84.57
2018-10-18T04:02:37.692Z,84.38
2018-10-18T04:05:07.745Z,84.52
2018-10-18T04:07:37.686Z,83.92
2018-10-18T04:10:07.182Z,84.72
2018-10-18T04:12:37.079Z,83.76
2018-10-18T04:15:07.220Z,84.12
2018-10-18T04:17:35.983Z,84.01
2018-10-18T04:20:05.228Z,83.91
2018-10-18T04:22:34.173Z,83.03
2018-10-18T04:25:03.583Z,82.64
2018-10-18T04:27:33.080Z,82.03
2018-10-18T04:30:02.168Z,81.38
2018-10-18T04:32:31.281Z,81.60
2018-10-18T04:35:00.971Z,81.20
2018-10-18T04:37:29.970Z,81.10
2018-10-18T04:39:58.815Z,80.42
2018-10-18T04:42:27.746Z,80.21
2018-10-18T04:44:56.629Z,80.24
2018-10-18T04:47:25.734Z,79.67
2018-10-18T04:49:54.955Z,79.28
2018-10-18T04:52:25.003Z,79.61
2018-10-18T04:55:24.829Z,79.72
2018-10-18T04:57:54.456Z,79.41
2018-10-18T05:00:25.268Z,79.75
2018-10-18T05:02:54.215Z,79.00
2018-10-18T05:05:34.065Z,79.65
2018-10-18T05:08:04.129Z,79.17
2018-10-18T05:10:33.035Z,79.11
2018-10-18T05:13:03.293Z,78.59
2018-10-18T05:15:32.637Z,79.48
2018-10-18T05:18:01.597Z,79.66
2018-10-18T05:20:30.544Z,79.89
2018-10-18T05:23:00.071Z,79.75
2018-10-18T05:25:29.774Z,79.07
2018-10-18T05:28:00.801Z,79.77
2018-10-18T05:30:30.557Z,79.30
2018-10-18T05:33:01.809Z,78.75
2018-10-18T05:35:32.204Z,77.79
2018-10-18T05:38:01.144Z,77.74
2018-10-18T05:40:30.118Z,77.74
2018-10-18T05:42:59.332Z,77.33
2018-10-18T05:45:28.396Z,78.64
2018-10-18T05:47:57.380Z,78.35
2018-10-18T05:50:27.262Z,78.70
2018-10-18T05:52:58.125Z,78.75
2018-10-18T05:55:27.119Z,79.24
2018-10-18T05:57:56.891Z,79.17
2018-10-18T06:00:27.226Z,78.68
2018-10-18T06:02:56.188Z,78.95
2018-10-18T06:05:25.292Z,79.05
2018-10-18T06:07:55.076Z,80.00
2018-10-18T06:10:35.462Z,79.71
2018-10-18T06:13:05.015Z,80.19
2018-10-18T06:15:34.716Z,80.14
2018-10-18T06:18:03.631Z,80.64
2018-10-18T06:20:32.551Z,80.01
2018-10-18T06:23:01.582Z,80.08
2018-10-18T06:25:31.304Z,79.72
2018-10-18T06:28:07.308Z,80.59
2018-10-18T06:30:40.280Z,80.31
2018-10-18T06:33:10.638Z,80.87
2018-10-18T06:35:41.506Z,79.75
2018-10-18T06:38:11.199Z,80.16
2018-10-18T06:40:41.233Z,79.62
2018-10-18T06:43:11.177Z,79.77
2018-10-18T06:45:41.974Z,80.33
2018-10-18T06:48:11.766Z,79.91
2018-10-18T06:50:41.075Z,80.11
2018-10-18T06:53:11.235Z,80.35
2018-10-18T06:55:40.916Z,80.58
2018-10-18T06:58:11.290Z,79.88
2018-10-18T07:00:41.224Z,80.09
2018-10-18T07:03:11.011Z,80.01
2018-10-18T07:05:41.815Z,80.31
2018-10-18T07:08:12.943Z,79.75
2018-10-18T07:10:42.490Z,80.15
2018-10-18T07:13:13.796Z,80.32
2018-10-18T07:15:43.734Z,80.29
2018-10-18T07:18:13.720Z,79.87
2018-10-18T07:20:43.040Z,79.89
2018-10-18T07:23:12.998Z,79.61
2018-10-18T07:25:43.401Z,79.55
2018-10-18T07:28:15.323Z,79.34
2018-10-18T07:30:44.245Z,79.78
2018-10-18T07:33:13.227Z,80.16
2018-10-18T07:35:42.900Z,79.14
2018-10-18T07:38:13.128Z,79.45
2018-10-18T07:40:42.688Z,79.19
2018-10-18T07:43:11.909Z,80.06
2018-10-18T07:45:41.674Z,80.00
2018-10-18T07:48:11.785Z,78.78
2018-10-18T07:50:41.695Z,79.17
2018-10-18T07:53:11.720Z,78.91
2018-10-18T07:55:41.209Z,78.67
2018-10-18T07:58:11.403Z,79.19
2018-10-18T08:00:41.577Z,79.21
2018-10-18T08:03:11.279Z,78.84
2018-10-18T08:05:40.559Z,78.18
2018-10-18T08:08:11.466Z,77.24
2018-10-18T08:10:40.722Z,77.65
2018-10-18T08:13:11.443Z,76.36
2018-10-18T08:15:41.664Z,76.35
2018-10-18T08:18:11.946Z,76.82
2018-10-18T08:20:41.275Z,75.84
2018-10-18T08:23:11.847Z,75.60
2018-10-18T08:25:42.540Z,75.53
2018-10-18T08:28:14.011Z,74.67
2018-10-18T08:30:43.112Z,74.58
2018-10-18T08:33:13.306Z,74.12
2018-10-18T08:35:43.024Z,74.56
2018-10-18T08:38:13.463Z,74.61
2018-10-18T08:40:42.398Z,74.30
2018-10-18T08:43:11.973Z,73.04
2018-10-18T08:45:41.736Z,73.02
2018-10-18T08:48:14.088Z,73.51
2018-10-18T08:50:43.195Z,73.64
2018-10-18T08:53:14.848Z,73.38
2018-10-18T08:55:43.794Z,72.89
2018-10-18T08:58:14.991Z,72.22
2018-10-18T09:00:44.542Z,71.21
2018-10-18T09:03:13.424Z,70.87
2018-10-18T09:05:42.648Z,70.92
2018-10-18T09:08:16.348Z,71.85
2018-10-18T09:10:45.210Z,72.44
2018-10-18T09:13:15.011Z,71.98
2018-10-18T09:15:44.392Z,72.59
2018-10-18T09:18:13.598Z,72.71
2018-10-18T09:20:42.886Z,71.96
2018-10-18T09:23:12.293Z,71.77
2018-10-18T09:25:42.058Z,70.59
2018-10-18T09:28:12.497Z,69.49
2018-10-18T09:30:41.953Z,68.82
2018-10-18T09:33:11.587Z,68.78
2018-10-18T09:35:41.818Z,68.81
2018-10-18T09:38:12.265Z,68.98
2018-10-18T09:40:41.609Z,68.53
2018-10-18T09:43:11.107Z,67.75
2018-10-18T09:45:40.422Z,67.75
2018-10-18T09:48:10.636Z,66.75
2018-10-18T09:50:39.844Z,66.87
2018-10-18T09:55:52.667Z,66.71
2018-10-18T09:58:22.568Z,66.29
2018-10-18T10:00:57.874Z,66.78
2018-10-18T10:03:26.831Z,66.84
2018-10-18T10:05:55.716Z,65.42
2018-10-18T10:08:25.805Z,65.75
2018-10-18T10:10:54.618Z,65.07
2018-10-18T10:13:24.478Z,64.99
2018-10-18T10:15:54.295Z,63.59
2018-10-18T10:18:24.487Z,62.14
2018-10-18T10:20:53.284Z,62.67
2018-10-18T10:23:22.378Z,61.44
2018-10-18T10:25:51.706Z,62.28
2018-10-18T10:28:22.008Z,60.81
2018-10-18T10:30:50.857Z,60.03
2018-10-18T10:33:19.892Z,59.07
2018-10-18T10:35:49.635Z,60.28
2018-10-18T10:38:18.952Z,60.62
2018-10-18T10:40:47.945Z,60.33
2018-10-18T10:43:16.935Z,60.26
2018-10-18T10:45:45.947Z,59.69
2018-10-18T10:48:15.586Z,59.88
2018-10-18T10:50:44.631Z,58.80
2018-10-18T10:53:14.147Z,57.05
2018-10-18T10:55:43.128Z,57.84
2018-10-18T10:58:14.058Z,55.63
2018-10-18T11:01:16.803Z,55.03
2018-10-18T11:03:45.935Z,55.61
2018-10-18T11:06:15.439Z,55.20
2018-10-18T11:08:44.866Z,55.04
2018-10-18T11:11:14.694Z,54.29
2018-10-18T11:13:44.230Z,53.78
2018-10-18T11:16:15.341Z,53.66
2018-10-18T11:18:44.293Z,53.78
2018-10-18T11:21:14.630Z,54.53
2018-10-18T11:23:43.511Z,55.06
2018-10-18T11:26:13.383Z,54.72
2018-10-18T11:28:42.686Z,55.49
2018-10-18T11:31:12.503Z,54.03
2018-10-18T11:33:42.396Z,54.29
2018-10-18T11:36:12.442Z,54.14
2018-10-18T11:38:42.042Z,54.39
2018-10-18T11:41:11.163Z,53.85
2018-10-18T11:43:40.619Z,53.71
2018-10-18T11:46:10.000Z,52.95
2018-10-18T11:48:39.634Z,51.97
2018-10-18T11:51:09.735Z,50.67
2018-10-18T11:53:38.849Z,50.55
2018-10-18T11:56:07.763Z,50.29
2018-10-18T11:58:37.463Z,50.48
2018-10-18T12:01:06.763Z,49.68
2018-10-18T12:03:35.628Z,49.39
2018-10-18T12:06:04.479Z,48.99
2018-10-18T12:08:35.041Z,49.70
2018-10-18T12:11:03.967Z,50.28
2018-10-18T12:13:34.704Z,48.99
2018-10-18T12:16:04.061Z,49.68
2018-10-18T12:18:33.326Z,48.77
2018-10-18T12:21:02.287Z,49.20
2018-10-18T12:23:31.336Z,48.87
2018-10-18T12:26:01.624Z,49.70
2018-10-18T12:28:32.225Z,51.01
2018-10-18T12:31:01.102Z,49.80
2018-10-18T12:33:30.677Z,49.50
2018-10-18T12:35:59.575Z,49.56
2018-10-18T12:38:28.532Z,50.12
2018-10-18T12:40:57.593Z,49.76
2018-10-18T12:43:26.394Z,50.61
2018-10-18T12:45:55.342Z,49.72
2018-10-18T12:48:24.448Z,49.68
2018-10-18T12:50:54.083Z,49.81
2018-10-18T12:53:23.493Z,49.72
2018-10-18T12:55:52.432Z,50.60
2018-10-18T12:58:22.171Z,49.67
2018-10-18T13:00:51.662Z,49.52
2018-10-18T13:03:20.549Z,49.89
2018-10-18T13:05:49.508Z,49.91
2018-10-18T13:08:19.610Z,49.55
2018-10-18T13:10:48.506Z,49.34
2018-10-18T13:13:18.185Z,49.54
2018-10-18T13:15:47.726Z,49.68
2018-10-18T13:18:16.690Z,48.02
2018-10-18T13:20:45.621Z,49.21
2018-10-18T13:23:14.941Z,49.66
2018-10-18T13:25:44.460Z,49.65
2018-10-18T13:28:13.967Z,49.24
2018-10-18T13:30:42.862Z,49.16
2018-10-18T13:33:12.595Z,49.06
2018-10-18T13:35:43.108Z,48.55
2018-10-18T13:38:12.638Z,49.32
2018-10-18T13:40:42.721Z,49.46
2018-10-18T13:43:12.666Z,49.63
2018-10-18T13:45:45.958Z,49.78
2018-10-18T13:48:15.667Z,49.44
2018-10-18T13:50:44.655Z,49.84
2018-10-18T13:53:14.059Z,49.90
2018-10-18T13:55:43.141Z,50.17
2018-10-18T13:58:14.035Z,50.41
2018-10-18T14:00:43.843Z,49.42
2018-10-18T14:03:13.901Z,49.08
2018-10-18T14:05:43.130Z,50.01
2018-10-18T14:08:13.811Z,50.41
2018-10-18T14:10:43.696Z,50.18
2018-10-18T14:13:13.473Z,50.62
2018-10-18T14:15:43.349Z,51.00
2018-10-18T14:18:13.091Z,50.73
2018-10-18T14:20:43.470Z,51.98
2018-10-18T14:23:13.122Z,52.13
2018-10-18T14:25:43.148Z,51.90
2018-10-18T14:28:12.858Z,51.85
2018-10-18T14:30:42.428Z,52.59
2018-10-18T14:33:12.335Z,52.96
2018-10-18T14:35:42.630Z,52.99
2018-10-18T14:38:12.407Z,52.86
2018-10-18T14:40:41.899Z,53.38
2018-10-18T14:43:11.682Z,53.67
2018-10-18T14:45:41.188Z,53.61
2018-10-18T14:48:10.868Z,53.62
2018-10-18T14:50:40.297Z,53.79
2018-10-18T14:53:10.697Z,53.28
2018-10-18T14:55:40.532Z,53.58
2018-10-18T14:58:11.495Z,53.78
2018-10-18T15:00:41.648Z,53.94
2018-10-18T15:03:12.826Z,54.05
2018-10-18T15:05:42.875Z,54.61
2018-10-18T15:08:13.197Z,54.63
2018-10-18T15:10:42.792Z,55.11
2018-10-18T15:13:13.874Z,55.15
2018-10-18T15:15:43.699Z,54.67
2018-10-18T15:18:12.898Z,55.29
2018-10-18T15:20:43.120Z,56.29
2018-10-18T15:23:12.853Z,55.56
2018-10-18T15:25:43.255Z,56.04
2018-10-18T15:28:13.183Z,56.63
2018-10-18T15:30:42.411Z,56.76
2018-10-18T15:33:12.626Z,56.49
2018-10-18T15:35:42.802Z,56.48
2018-10-18T15:38:13.219Z,56.01
2018-10-18T15:40:44.608Z,56.45
2018-10-18T15:43:14.453Z,56.81
2018-10-18T15:45:43.646Z,56.81
2018-10-18T15:48:13.067Z,57.40
2018-10-18T15:50:42.349Z,57.36
2018-10-18T15:53:13.814Z,58.00
2018-10-18T15:55:42.751Z,58.03
2018-10-18T15:58:12.889Z,58.38
2018-10-18T16:00:42.712Z,58.22
2018-10-18T16:03:12.591Z,57.82
2018-10-18T16:05:43.256Z,58.33
2018-10-18T16:08:13.307Z,58.15
2018-10-18T16:10:42.494Z,58.76
2018-10-18T16:14:14.899Z,58.80
2018-10-18T16:16:44.402Z,58.84
2018-10-18T16:19:13.314Z,59.70
2018-10-18T16:21:42.290Z,59.57
2018-10-18T16:24:12.680Z,59.38
2018-10-18T16:26:42.283Z,59.32
2018-10-18T16:29:12.409Z,59.72
2018-10-18T16:31:41.815Z,59.34
2018-10-18T16:34:12.059Z,59.45
2018-10-18T16:36:41.949Z,58.98
2018-10-18T16:39:13.389Z,58.74
2018-10-18T16:41:42.733Z,58.79
2018-10-18T16:44:12.053Z,58.93
2018-10-18T16:46:41.535Z,58.75
2018-10-18T16:49:11.055Z,58.87
2018-10-18T16:51:41.667Z,59.15
2018-10-18T16:54:11.552Z,58.55
2018-10-18T16:56:41.761Z,59.33
2018-10-18T16:59:12.298Z,58.92
2018-10-18T17:01:42.447Z,59.26
2018-10-18T17:04:12.403Z,60.03
2018-10-18T17:06:42.219Z,59.64
2018-10-18T17:09:13.201Z,59.83
2018-10-18T17:11:42.122Z,59.85
2018-10-18T17:14:12.335Z,60.34
2018-10-18T17:16:43.135Z,60.44
2018-10-18T17:19:12.088Z,61.11
2018-10-18T17:21:41.743Z,60.98
2018-10-18T17:24:14.071Z,61.26
2018-10-18T17:26:43.000Z,61.29
2018-10-18T17:29:12.931Z,61.84
2018-10-18T17:31:43.819Z,61.58
2018-10-18T17:34:13.489Z,62.28
2018-10-18T17:36:42.238Z,62.47
2018-10-18T17:39:11.964Z,62.14
2018-10-18T17:41:41.603Z,62.66
2018-10-18T17:44:11.386Z,62.51
2018-10-18T17:46:40.693Z,63.11
2018-10-18T17:49:09.761Z,62.86
2018-10-18T17:51:39.792Z,63.02
2018-10-18T17:54:08.632Z,63.47
2018-10-18T17:56:40.006Z,63.38
2018-10-18T17:59:09.918Z,63.45
2018-10-18T18:01:39.954Z,63.64
2018-10-18T18:04:09.300Z,63.71
2018-10-18T18:06:40.199Z,63.82
2018-10-18T18:09:11.408Z,63.83
2018-10-18T18:15:26.026Z,64.54
2018-10-18T18:17:55.015Z,64.65
2018-10-18T18:20:24.123Z,65.14
2018-10-18T18:22:53.094Z,65.36
2018-10-18T18:25:22.447Z,65.86
2018-10-18T18:27:51.868Z,66.16
2018-10-18T18:30:20.836Z,66.48
2018-10-18T18:32:49.761Z,66.60
2018-10-18T18:35:19.532Z,66.99
2018-10-18T18:37:48.441Z,67.13
2018-10-18T18:40:17.423Z,67.97
2018-10-18T18:42:46.367Z,68.46
2018-10-18T18:45:20.417Z,68.73
2018-10-18T18:47:49.585Z,68.44
2018-10-18T18:50:18.942Z,68.20
2018-10-18T18:52:48.717Z,68.33
2018-10-18T18:55:17.624Z,68.23
2018-10-18T18:57:46.985Z,68.54
2018-10-18T19:00:16.999Z,68.56
2018-10-18T19:02:45.872Z,69.00
2018-10-18T19:05:14.869Z,69.21
2018-10-18T19:07:44.930Z,69.38
2018-10-18T19:10:13.834Z,69.70
2018-10-18T19:12:42.777Z,69.83
2018-10-18T19:15:12.485Z,69.71
2018-10-18T19:17:42.513Z,70.09
2018-10-18T19:20:11.727Z,70.13
2018-10-18T19:22:41.108Z,69.93
2018-10-18T19:25:11.415Z,70.34
2018-10-18T19:27:41.663Z,70.21
2018-10-18T19:30:12.280Z,70.04
2018-10-18T19:32:41.774Z,69.72
2018-10-18T19:35:11.623Z,69.79
2018-10-18T19:37:40.779Z,69.95
2018-10-18T19:40:10.299Z,70.15
2018-10-18T19:42:39.636Z,70.54
2018-10-18T19:45:10.592Z,70.44
2018-10-18T19:47:40.151Z,70.56
2018-10-18T19:50:10.294Z,69.96
2018-10-18T19:52:40.562Z,70.70
2018-10-18T19:55:11.559Z,70.92
2018-10-18T19:57:41.138Z,70.48
2018-10-18T20:00:11.613Z,70.91
2018-10-18T20:02:41.021Z,70.43
2018-10-18T20:05:10.442Z,70.65
2018-10-18T20:08:42.235Z,70.84
2018-10-18T20:11:12.110Z,70.68
2018-10-18T20:13:42.637Z,71.04
2018-10-18T20:16:13.135Z,71.29
2018-10-18T20:18:42.397Z,71.02
2018-10-18T20:21:12.381Z,71.52
2018-10-18T20:23:42.215Z,72.01
2018-10-18T20:26:12.561Z,73.08
2018-10-18T20:28:43.012Z,73.21
2018-10-18T20:31:13.066Z,72.99
2018-10-18T20:33:42.868Z,73.07
2018-10-18T20:36:12.767Z,72.85
2018-10-18T20:38:41.816Z,73.06
2018-10-18T20:41:12.178Z,73.63
2018-10-18T20:43:41.933Z,73.40
2018-10-18T20:46:11.021Z,73.38
2018-10-18T20:48:40.163Z,73.42
2018-10-18T20:54:02.046Z,74.54
2018-10-18T20:56:31.501Z,74.22
2018-10-18T20:59:01.106Z,75.03
2018-10-18T21:01:30.534Z,74.71
2018-10-18T21:03:59.568Z,74.18
2018-10-18T21:06:28.760Z,73.79
2018-10-18T21:08:58.917Z,73.94
2018-10-18T21:11:28.750Z,74.31
2018-10-18T21:14:00.308Z,75.06
2018-10-18T21:16:31.757Z,74.65
2018-10-18T21:19:01.377Z,75.50
2018-10-18T21:21:30.444Z,75.19
2018-10-18T21:23:59.445Z,74.74
2018-10-18T21:26:29.050Z,74.75
2018-10-18T21:28:58.512Z,74.50
2018-10-18T21:31:27.553Z,74.32
2018-10-18T21:33:57.134Z,75.82
2018-10-18T21:36:25.967Z,74.64
2018-10-18T21:38:55.087Z,75.05
2018-10-18T21:41:24.049Z,75.29
2018-10-18T21:43:53.384Z,75.26
2018-10-18T21:46:22.249Z,75.16
2018-10-18T21:48:51.249Z,75.71
2018-10-18T21:51:21.173Z,75.64
2018-10-18T21:53:50.089Z,77.71
2018-10-18T21:56:18.935Z,79.68
2018-10-18T21:58:48.703Z,79.73
2018-10-18T22:01:18.263Z,79.90
2018-10-18T22:03:47.182Z,80.10
2018-10-18T22:06:16.106Z,79.16
2018-10-18T22:08:45.001Z,78.26
2018-10-18T22:11:14.106Z,77.57
2018-10-18T22:13:43.628Z,76.84
2018-10-18T22:16:13.624Z,78.10
2018-10-18T22:18:42.557Z,77.81
2018-10-18T22:21:12.566Z,77.57
2018-10-18T22:23:41.926Z,77.50
2018-10-18T22:26:12.908Z,77.41
2018-10-18T22:28:42.707Z,77.95
2018-10-18T22:31:11.887Z,78.65
2018-10-18T22:33:41.852Z,78.62
2018-10-18T22:36:11.871Z,78.30
2018-10-18T22:38:41.737Z,78.19
2018-10-18T22:41:13.627Z,78.18
2018-10-18T22:43:43.207Z,78.20
2018-10-18T22:46:12.392Z,77.54
2018-10-18T22:48:42.124Z,77.49
2018-10-18T22:51:14.407Z,77.59
2018-10-18T22:53:43.240Z,77.72
2018-10-18T22:56:12.095Z,77.65
2018-10-18T22:58:42.055Z,78.19
2018-10-18T23:01:12.242Z,78.23
2018-10-18T23:03:42.049Z,77.61
2018-10-18T23:06:11.864Z,77.67
2018-10-18T23:08:41.507Z,78.08
2018-10-18T23:11:10.626Z,78.28
2018-10-18T23:13:40.298Z,78.36
2018-10-18T23:16:09.738Z,77.96
2018-10-18T23:18:38.554Z,77.92
2018-10-18T23:21:07.449Z,77.98
2018-10-18T23:23:36.359Z,78.06
2018-10-18T23:26:05.687Z,77.74
2018-10-18T23:28:35.266Z,77.69
2018-10-18T23:31:04.197Z,77.33
2018-10-18T23:33:34.247Z,77.55
2018-10-18T23:36:03.044Z,77.61
2018-10-18T23:38:31.907Z,78.01
2018-10-18T23:41:01.320Z,77.86
2018-10-18T23:43:30.677Z,77.86
2018-10-18T23:46:00.092Z,78.46
2018-10-18T23:48:28.931Z,78.39
2018-10-18T23:50:57.834Z,78.54
2018-10-18T23:53:27.116Z,78.16
2018-10-18T23:55:55.935Z,77.72
2018-10-18T23:58:25.188Z,77.94
